createdAt,value
2023-04-18T04:02:34.268Z,18.70
2023-04-18T04:05:02.652Z,19.20
2023-04-18T04:07:29.417Z,19.93
2023-04-18T04:09:56.070Z,18.65
2023-04-18T04:12:22.649Z,21.58
2023-04-18T04:14:49.194Z,18.17
2023-04-18T04:17:15.963Z,19.00
2023-04-18T04:19:42.485Z,21.23
2023-04-18T04:22:09.397Z,18.03
2023-04-18T04:24:38.475Z,20.33
2023-04-18T04:27:05.283Z,22.65
2023-04-18T04:29:31.825Z,18.70
2023-04-18T04:31:59.848Z,19.33
2023-04-18T04:34:27.019Z,19.90
2023-04-18T04:36:55.098Z,17.77
2023-04-18T04:39:21.920Z,18.83
2023-04-18T04:41:49.408Z,18.92
2023-04-18T04:44:18.057Z,21.40
2023-04-18T04:46:45.452Z,21.63
2023-04-18T04:49:13.275Z,18.50
2023-04-18T04:51:40.371Z,18.67
2023-04-18T04:54:06.989Z,21.92
2023-04-18T04:56:33.661Z,20.30
2023-04-18T04:59:00.911Z,20.70
2023-04-18T05:01:40.017Z,19.05
2023-04-18T05:04:06.820Z,22.75
2023-04-18T05:06:34.151Z,20.30
2023-04-18T05:09:01.233Z,17.83
2023-04-18T05:11:27.850Z,25.07
2023-04-18T05:13:54.592Z,22.25
2023-04-18T05:16:21.217Z,23.08
2023-04-18T05:18:48.716Z,21.13
2023-04-18T05:21:15.438Z,19.23
2023-04-18T05:23:42.325Z,23.00
2023-04-18T05:26:09.225Z,25.48
2023-04-18T05:28:35.773Z,19.02
2023-04-18T05:31:02.487Z,18.70
2023-04-18T05:33:30.799Z,20.23
2023-04-18T05:35:58.058Z,20.03
2023-04-18T05:38:25.094Z,21.98
2023-04-18T05:40:51.765Z,26.55
2023-04-18T05:43:19.456Z,22.80
2023-04-18T05:45:46.987Z,24.00
2023-04-18T05:48:14.403Z,20.63
2023-04-18T05:50:41.533Z,18.85
2023-04-18T05:53:08.686Z,22.42
2023-04-18T05:55:35.412Z,20.40
2023-04-18T05:58:02.592Z,19.15
2023-04-18T06:00:30.878Z,19.57
2023-04-18T06:02:58.586Z,23.48
2023-04-18T06:05:25.449Z,22.25
2023-04-18T06:07:52.278Z,24.05
2023-04-18T06:10:19.390Z,21.40
2023-04-18T06:12:45.968Z,19.97
2023-04-18T06:15:12.602Z,21.40
2023-04-18T06:17:39.624Z,21.50
2023-04-18T06:20:07.077Z,24.08
2023-04-18T06:22:36.790Z,22.35
2023-04-18T06:25:04.105Z,21.13
2023-04-18T06:27:32.155Z,22.60
2023-04-18T06:29:58.978Z,21.95
2023-04-18T06:32:25.934Z,20.65
2023-04-18T06:34:53.523Z,20.60
2023-04-18T06:37:20.693Z,21.57
2023-04-18T06:39:47.436Z,23.98
2023-04-18T06:42:13.997Z,22.55
2023-04-18T06:44:43.095Z,20.15
2023-04-18T06:47:10.541Z,18.92
2023-04-18T06:49:37.148Z,22.13
2023-04-18T06:52:03.810Z,21.63
2023-04-18T06:54:30.353Z,21.30
2023-04-18T06:56:57.229Z,23.25
2023-04-18T06:59:23.824Z,19.58
2023-04-18T07:01:51.422Z,19.23
2023-04-18T07:04:18.413Z,18.65
2023-04-18T07:06:45.434Z,22.67
2023-04-18T07:09:11.984Z,19.73
2023-04-18T07:11:40.561Z,23.67
2023-04-18T07:14:07.218Z,21.47
2023-04-18T07:16:34.590Z,19.83
2023-04-18T07:19:01.285Z,20.55
2023-04-18T07:21:28.042Z,23.33
2023-04-18T07:23:54.665Z,22.00
2023-04-18T07:26:21.216Z,19.23
2023-04-18T07:28:48.803Z,20.10
2023-04-18T07:31:16.568Z,22.45
2023-04-18T07:33:43.467Z,19.58
2023-04-18T07:36:10.208Z,19.15
2023-04-18T07:38:36.880Z,19.10
2023-04-18T07:41:03.683Z,19.05
2023-04-18T07:43:30.660Z,18.75
2023-04-18T07:45:57.357Z,16.83
2023-04-18T07:48:25.333Z,17.98
2023-04-18T07:50:52.450Z,18.73
2023-04-18T07:53:19.057Z,15.90
2023-04-18T07:55:46.592Z,17.90
2023-04-18T07:58:13.603Z,18.13
2023-04-18T08:00:43.274Z,16.65
2023-04-18T08:03:13.040Z,16.70
2023-04-18T08:05:40.957Z,18.25
2023-04-18T08:08:09.326Z,16.63
2023-04-18T08:10:36.267Z,15.63
2023-04-18T08:13:03.810Z,16.73
2023-04-18T08:15:32.601Z,20.20
2023-04-18T08:18:00.714Z,25.05
2023-04-18T08:20:29.234Z,16.55
2023-04-18T08:25:25.664Z,15.45
2023-04-18T08:27:52.242Z,18.20
2023-04-18T08:30:19.467Z,15.98
2023-04-18T08:32:46.057Z,15.75
2023-04-18T08:35:12.808Z,16.92
2023-04-18T08:37:39.385Z,16.20
2023-04-18T08:40:07.508Z,15.77
2023-04-18T08:42:36.324Z,16.85
2023-04-18T08:45:04.276Z,14.80
2023-04-18T08:47:31.186Z,17.17
2023-04-18T08:49:58.609Z,14.63
2023-04-18T08:52:28.357Z,17.03
2023-04-18T08:54:54.889Z,14.30
2023-04-18T08:57:27.001Z,15.27
2023-04-18T08:59:54.374Z,18.27
2023-04-18T09:02:26.888Z,14.95
2023-04-18T09:04:53.649Z,12.90
2023-04-18T09:07:27.707Z,13.63
2023-04-18T09:09:59.462Z,13.55
2023-04-18T09:12:27.991Z,14.32
2023-04-18T09:14:57.845Z,14.20
2023-04-18T09:17:31.722Z,13.43
2023-04-18T09:19:59.905Z,14.00
2023-04-18T09:22:26.436Z,13.00
2023-04-18T09:24:58.716Z,13.82
2023-04-18T09:27:25.311Z,12.88
2023-04-18T09:29:54.751Z,14.00
2023-04-18T09:32:29.476Z,14.70
2023-04-18T09:35:05.404Z,13.77
2023-04-18T09:37:32.102Z,13.30
2023-04-18T09:39:58.731Z,12.82
2023-04-18T09:42:28.189Z,12.10
2023-04-18T09:45:06.618Z,13.05
2023-04-18T09:47:35.243Z,12.35
2023-04-18T09:50:06.772Z,14.35
2023-04-18T09:52:38.537Z,13.00
2023-04-18T09:55:07.566Z,12.97
2023-04-18T09:57:35.870Z,14.70
2023-04-18T10:00:26.524Z,12.35
2023-04-18T10:03:09.958Z,13.23
2023-04-18T10:05:39.778Z,12.20
2023-04-18T10:08:07.065Z,13.07
2023-04-18T10:10:38.960Z,13.23
2023-04-18T10:13:08.474Z,12.55
2023-04-18T10:15:35.258Z,14.80
2023-04-18T10:18:11.501Z,11.93
2023-04-18T10:20:41.215Z,11.83
2023-04-18T10:23:34.656Z,14.07
2023-04-18T10:26:02.923Z,12.30
2023-04-18T10:28:54.683Z,14.13
2023-04-18T10:31:23.075Z,11.00
2023-04-18T10:34:03.985Z,9.53
2023-04-18T10:36:32.497Z,10.85
2023-04-18T10:39:21.566Z,11.40
2023-04-18T10:41:50.581Z,9.85
2023-04-18T10:44:19.617Z,9.23
2023-04-18T10:46:52.070Z,6.70
2023-04-18T10:49:27.859Z,9.88
2023-04-18T10:51:58.710Z,8.30
2023-04-18T10:54:46.582Z,7.15
2023-04-18T10:57:13.880Z,5.95
2023-04-18T10:59:48.083Z,6.77
2023-04-18T11:02:32.354Z,6.80
2023-04-18T11:05:01.551Z,6.97
2023-04-18T11:07:37.412Z,8.88
2023-04-18T11:10:05.605Z,8.68
2023-04-18T11:12:34.878Z,8.37
2023-04-18T11:15:10.635Z,5.40
2023-04-18T11:17:40.127Z,4.35
2023-04-18T11:20:15.326Z,4.63
2023-04-18T11:22:48.898Z,4.82
2023-04-18T11:25:16.690Z,7.10
2023-04-18T11:27:45.184Z,6.63
2023-04-18T11:30:13.148Z,7.53
2023-04-18T11:32:39.899Z,7.13
2023-04-18T11:35:09.507Z,8.70
2023-04-18T11:37:37.768Z,9.47
2023-04-18T11:40:08.726Z,8.02
2023-04-18T11:42:37.364Z,7.78
2023-04-18T11:45:04.464Z,7.50
2023-04-18T11:47:34.309Z,8.27
2023-04-18T11:50:03.937Z,7.00
2023-04-18T11:52:31.377Z,8.25
2023-04-18T11:55:21.158Z,9.05
2023-04-18T11:58:01.079Z,9.90
2023-04-18T12:00:39.477Z,11.57
2023-04-18T12:03:11.868Z,11.97
2023-04-18T12:05:40.205Z,10.23
2023-04-18T12:08:17.318Z,9.50
2023-04-18T12:10:50.529Z,10.93
2023-04-18T12:13:18.050Z,11.50
2023-04-18T12:15:46.263Z,11.33
2023-04-18T12:18:15.355Z,10.30
2023-04-18T12:20:54.313Z,11.48
2023-04-18T12:23:36.362Z,11.32
2023-04-18T12:26:07.673Z,12.57
2023-04-18T12:28:35.422Z,11.50
2023-04-18T12:31:02.556Z,12.27
2023-04-18T12:33:30.629Z,11.82
2023-04-18T12:35:57.457Z,13.07
2023-04-18T12:38:24.279Z,13.30
2023-04-18T12:40:51.693Z,13.13
2023-04-18T12:43:18.927Z,12.68
2023-04-18T12:45:46.902Z,13.38
2023-04-18T12:48:13.765Z,13.88
2023-04-18T12:50:40.456Z,14.15
2023-04-18T12:53:07.038Z,12.97
2023-04-18T12:55:33.637Z,12.98
2023-04-18T12:58:00.731Z,13.90
2023-04-18T13:00:30.133Z,13.45
2023-04-18T13:02:57.749Z,14.52
2023-04-18T13:05:29.224Z,13.33
2023-04-18T13:08:08.575Z,13.75
2023-04-18T13:10:39.700Z,16.23
2023-04-18T13:13:06.380Z,14.10
2023-04-18T13:15:40.692Z,14.25
2023-04-18T13:18:07.957Z,15.23
2023-04-18T13:20:34.940Z,15.63
2023-04-18T13:23:02.992Z,14.80
2023-04-18T13:25:29.679Z,15.73
2023-04-18T13:27:58.286Z,13.20
2023-04-18T13:30:24.867Z,14.63
2023-04-18T13:32:51.779Z,14.98
2023-04-18T13:35:18.488Z,15.25
2023-04-18T13:37:45.045Z,15.25
2023-04-18T13:40:12.103Z,14.55
2023-04-18T13:42:38.835Z,17.53
2023-04-18T13:45:06.283Z,15.48
2023-04-18T13:47:32.934Z,15.65
2023-04-18T13:49:59.546Z,15.63
2023-04-18T13:52:26.252Z,16.15
2023-04-18T13:54:53.098Z,17.77
2023-04-18T13:57:19.864Z,17.27
2023-04-18T13:59:46.894Z,15.80
2023-04-18T14:02:13.743Z,16.48
2023-04-18T14:04:40.988Z,16.70
2023-04-18T14:07:08.161Z,17.30
2023-04-18T14:09:34.837Z,16.38
2023-04-18T14:12:02.112Z,15.95
2023-04-18T14:14:28.759Z,16.15
2023-04-18T14:16:56.239Z,18.52
2023-04-18T14:19:23.262Z,16.53
2023-04-18T14:21:50.159Z,16.33
2023-04-18T14:24:17.108Z,17.35
2023-04-18T14:26:44.120Z,17.17
2023-04-18T14:29:11.754Z,17.52
2023-04-18T14:31:38.516Z,18.73
2023-04-18T14:34:05.643Z,18.13
2023-04-18T14:36:33.003Z,20.67
2023-04-18T14:38:59.591Z,18.75
2023-04-18T14:41:26.546Z,20.02
2023-04-18T14:43:53.404Z,20.90
2023-04-18T14:46:22.532Z,19.60
2023-04-18T14:48:49.389Z,22.00
2023-04-18T14:51:16.912Z,18.85
2023-04-18T14:53:44.517Z,18.95
2023-04-18T14:56:11.262Z,21.03
2023-04-18T14:58:38.351Z,21.05
2023-04-18T15:01:06.327Z,23.65
2023-04-18T15:03:33.431Z,21.73
2023-04-18T15:06:00.311Z,22.73
2023-04-18T15:08:27.046Z,19.50
2023-04-18T15:10:53.594Z,19.95
2023-04-18T15:13:20.450Z,20.83
2023-04-18T15:15:55.166Z,20.75
2023-04-18T15:18:22.030Z,21.63
2023-04-18T15:20:48.666Z,20.07
2023-04-18T15:23:15.518Z,22.00
2023-04-18T15:25:43.862Z,22.30
2023-04-18T15:28:10.532Z,22.70
2023-04-18T15:30:37.094Z,22.00
2023-04-18T15:33:03.771Z,21.97
2023-04-18T15:35:30.488Z,20.75
2023-04-18T15:37:58.255Z,20.38
2023-04-18T15:40:24.904Z,19.70
2023-04-18T15:42:53.791Z,21.48
2023-04-18T15:45:21.425Z,22.07
2023-04-18T15:47:48.153Z,21.50
2023-04-18T15:50:16.011Z,22.33
2023-04-18T15:52:42.757Z,22.10
2023-04-18T15:55:11.241Z,21.00
2023-04-18T15:57:37.790Z,19.97
2023-04-18T16:00:19.617Z,20.00
2023-04-18T16:02:46.869Z,20.92
2023-04-18T16:05:13.974Z,20.88
2023-04-18T16:07:42.388Z,21.30
2023-04-18T16:10:10.691Z,20.87
2023-04-18T16:12:38.563Z,20.55
2023-04-18T16:15:06.690Z,20.25
2023-04-18T16:17:33.295Z,23.35
2023-04-18T16:19:59.883Z,22.92
2023-04-18T16:22:27.289Z,22.70
2023-04-18T16:24:53.896Z,22.02
2023-04-18T16:27:20.559Z,21.73
2023-04-18T16:29:48.239Z,20.75
2023-04-18T16:32:14.880Z,19.77
2023-04-18T16:34:41.469Z,20.67
2023-04-18T16:37:08.106Z,21.73
2023-04-18T16:39:34.732Z,21.25
2023-04-18T16:42:01.498Z,19.92
2023-04-18T16:44:29.246Z,20.15
2023-04-18T16:46:56.019Z,23.50
2023-04-18T16:49:23.704Z,21.58
2023-04-18T16:51:50.414Z,19.60
2023-04-18T16:54:17.242Z,18.48
2023-04-18T16:56:44.815Z,19.05
2023-04-18T16:59:11.612Z,18.10
2023-04-18T17:01:38.315Z,19.33
2023-04-18T17:04:05.366Z,19.25
2023-04-18T17:06:32.775Z,19.67
2023-04-18T17:08:59.437Z,18.30
2023-04-18T17:11:26.531Z,18.53
2023-04-18T17:13:53.185Z,19.05
2023-04-18T17:16:20.036Z,20.45
2023-04-18T17:18:46.614Z,19.45
2023-04-18T17:21:13.206Z,20.10
2023-04-18T17:23:41.574Z,20.57
2023-04-18T17:26:11.212Z,18.85
2023-04-18T17:28:37.845Z,19.27
2023-04-18T17:31:04.747Z,18.77
2023-04-18T17:33:31.702Z,19.10
2023-04-18T17:35:58.683Z,19.20
2023-04-18T17:38:25.476Z,19.63
2023-04-18T17:41:02.592Z,19.73
2023-04-18T17:43:29.506Z,18.40
2023-04-18T17:45:56.991Z,19.40
2023-04-18T17:48:23.687Z,18.80
2023-04-18T17:50:50.292Z,19.15
2023-04-18T17:53:17.999Z,18.98
2023-04-18T17:55:45.322Z,21.25
2023-04-18T17:58:11.943Z,19.20
2023-04-18T18:00:38.495Z,18.73
2023-04-18T18:03:05.583Z,19.38
2023-04-18T18:05:32.400Z,19.63
2023-04-18T18:08:01.007Z,18.60
2023-04-18T18:10:28.053Z,22.27
2023-04-18T18:12:54.565Z,21.57
2023-04-18T18:15:21.255Z,20.02
2023-04-18T18:17:49.717Z,21.30
2023-04-18T18:20:17.082Z,20.48
2023-04-18T18:22:44.551Z,19.63
2023-04-18T18:25:11.134Z,19.40
2023-04-18T18:27:37.680Z,20.40
2023-04-18T18:30:04.725Z,21.70
2023-04-18T18:32:31.293Z,20.60
2023-04-18T18:34:58.045Z,19.55
2023-04-18T18:37:26.682Z,21.00
2023-04-18T18:39:59.885Z,21.25
2023-04-18T18:42:26.522Z,18.60
2023-04-18T18:44:53.041Z,21.58
2023-04-18T18:47:19.605Z,20.05
2023-04-18T18:49:46.536Z,22.10
2023-04-18T18:52:13.060Z,20.40
2023-04-18T18:54:39.617Z,20.30
2023-04-18T18:57:06.189Z,22.95
2023-04-18T18:59:32.719Z,23.02
2023-04-18T19:01:59.478Z,25.70
2023-04-18T19:04:26.540Z,23.92
2023-04-18T19:06:53.632Z,24.35
2023-04-18T19:09:21.252Z,24.58
2023-04-18T19:11:47.838Z,25.00
2023-04-18T19:14:14.453Z,24.87
2023-04-18T19:16:41.127Z,26.58
2023-04-18T19:19:07.732Z,24.65
2023-04-18T19:21:34.276Z,27.90
2023-04-18T19:24:00.815Z,23.83
2023-04-18T19:26:27.334Z,23.77
2023-04-18T19:28:54.500Z,25.52
2023-04-18T19:31:21.061Z,22.85
2023-04-18T19:33:47.580Z,23.33
2023-04-18T19:36:14.180Z,23.33
2023-04-18T19:38:41.561Z,22.83
2023-04-18T19:41:08.132Z,22.55
2023-04-18T19:43:34.811Z,24.00
2023-04-18T19:46:01.430Z,24.23
2023-04-18T19:48:28.103Z,23.05
2023-04-18T19:50:56.369Z,22.87
2023-04-18T19:53:23.781Z,22.10
2023-04-18T19:55:50.409Z,22.33
2023-04-18T19:58:46.820Z,24.85
2023-04-18T20:01:14.439Z,23.25
2023-04-18T20:03:41.447Z,23.87
2023-04-18T20:06:08.970Z,23.27
2023-04-18T20:08:37.007Z,25.92
2023-04-18T20:11:11.244Z,22.42
2023-04-18T20:13:38.234Z,24.33
2023-04-18T20:16:05.977Z,24.20
2023-04-18T20:18:33.991Z,20.55
2023-04-18T20:21:00.593Z,21.83
2023-04-18T20:23:27.406Z,19.40
2023-04-18T20:25:54.117Z,21.05
2023-04-18T20:28:20.706Z,21.70
2023-04-18T20:30:48.052Z,20.15
2023-04-18T20:33:14.738Z,21.67
2023-04-18T20:35:41.633Z,22.40
2023-04-18T20:38:09.815Z,20.67
2023-04-18T20:40:37.247Z,20.07
2023-04-18T20:43:04.249Z,21.15
2023-04-18T20:45:31.856Z,19.35
2023-04-18T20:47:58.870Z,19.45
2023-04-18T20:50:25.489Z,20.40
2023-04-18T20:52:52.026Z,21.37
2023-04-18T20:55:18.602Z,20.38
2023-04-18T20:57:45.361Z,20.05
2023-04-18T21:00:13.907Z,19.92
2023-04-18T21:02:41.687Z,18.27
2023-04-18T21:05:08.832Z,16.93
2023-04-18T21:07:36.142Z,20.00
2023-04-18T21:10:03.722Z,18.15
2023-04-18T21:12:30.437Z,18.13
2023-04-18T21:14:57.082Z,17.80
2023-04-18T21:17:25.522Z,18.93
2023-04-18T21:19:52.479Z,16.88
2023-04-18T21:22:19.179Z,16.42
2023-04-18T21:24:46.927Z,16.48
2023-04-18T21:27:15.053Z,15.77
2023-04-18T21:29:42.320Z,16.63
2023-04-18T21:32:08.886Z,16.10
2023-04-18T21:34:35.617Z,17.40
2023-04-18T21:37:02.215Z,15.90
2023-04-18T21:39:28.762Z,15.63
2023-04-18T21:41:55.339Z,17.57
2023-04-18T21:44:21.874Z,17.67
2023-04-18T21:46:48.436Z,14.85
2023-04-18T21:49:15.604Z,15.30
2023-04-18T21:51:42.492Z,13.93
2023-04-18T21:54:09.456Z,14.43
